sensor_id;sensor_type;location;lat;lon;timestamp;pressure;altitude;pressure_sealevel;temperature;humidity
37852;BME280;23691;52.486;4.650;2023-02-15T00:01:10;102979.97;;;4.40;77.74
37852;BME280;23691;52.486;4.650;2023-02-15T00:03:36;102968.56;;;4.38;77.84
37852;BME280;23691;52.486;4.650;2023-02-15T00:06:02;102963.34;;;4.36;77.81
37852;BME280;23691;52.486;4.650;2023-02-15T00:08:28;102950.09;;;4.36;77.96
37852;BME280;23691;52.486;4.650;2023-02-15T00:10:53;102955.31;;;4.38;77.57
37852;BME280;23691;52.486;4.650;2023-02-15T00:13:18;102949.25;;;4.36;78.04
37852;BME280;23691;52.486;4.650;2023-02-15T00:15:44;102950.97;;;4.37;77.92
37852;BME280;23691;52.486;4.650;2023-02-15T00:18:09;102944.72;;;4.38;78.08
37852;BME280;23691;52.486;4.650;2023-02-15T00:20:35;102946.59;;;4.36;78.00
37852;BME280;23691;52.486;4.650;2023-02-15T00:23:00;102943.06;;;4.35;78.17
37852;BME280;23691;52.486;4.650;2023-02-15T00:25:26;102943.16;;;4.34;78.21
37852;BME280;23691;52.486;4.650;2023-02-15T00:27:51;102942.38;;;4.32;77.95
37852;BME280;23691;52.486;4.650;2023-02-15T00:30:17;102945.06;;;4.30;78.24
37852;BME280;23691;52.486;4.650;2023-02-15T00:32:42;102939.00;;;4.28;78.03
37852;BME280;23691;52.486;4.650;2023-02-15T00:35:07;102931.97;;;4.27;78.17
37852;BME280;23691;52.486;4.650;2023-02-15T00:37:34;102932.03;;;4.25;78.40
37852;BME280;23691;52.486;4.650;2023-02-15T00:40:00;102936.44;;;4.26;78.52
37852;BME280;23691;52.486;4.650;2023-02-15T00:42:25;102928.47;;;4.26;78.64
37852;BME280;23691;52.486;4.650;2023-02-15T00:44:51;102929.41;;;4.25;78.60
37852;BME280;23691;52.486;4.650;2023-02-15T00:47:16;102928.53;;;4.25;78.67
37852;BME280;23691;52.486;4.650;2023-02-15T00:49:41;102920.59;;;4.25;78.85
37852;BME280;23691;52.486;4.650;2023-02-15T00:52:07;102922.31;;;4.26;79.16
37852;BME280;23691;52.486;4.650;2023-02-15T00:54:32;102922.31;;;4.26;79.13
37852;BME280;23691;52.486;4.650;2023-02-15T00:56:59;102924.09;;;4.25;79.32
37852;BME280;23691;52.486;4.650;2023-02-15T00:59:25;102920.59;;;4.25;79.54
37852;BME280;23691;52.486;4.650;2023-02-15T01:01:50;102918.88;;;4.24;79.33
37852;BME280;23691;52.486;4.650;2023-02-15T01:04:16;102917.16;;;4.23;79.47
37852;BME280;23691;52.486;4.650;2023-02-15T01:06:41;102919.88;;;4.21;79.42
37852;BME280;23691;52.486;4.650;2023-02-15T01:09:06;102914.66;;;4.20;79.86
37852;BME280;23691;52.486;4.650;2023-02-15T01:11:32;102917.31;;;4.20;79.81
37852;BME280;23691;52.486;4.650;2023-02-15T01:13:58;102903.41;;;4.15;80.01
37852;BME280;23691;52.486;4.650;2023-02-15T01:16:25;102902.56;;;4.14;80.30
37852;BME280;23691;52.486;4.650;2023-02-15T01:18:51;102904.41;;;4.12;80.17
37852;BME280;23691;52.486;4.650;2023-02-15T01:21:19;102903.63;;;4.10;80.15
37852;BME280;23691;52.486;4.650;2023-02-15T01:23:45;102898.53;;;4.05;80.28
37852;BME280;23691;52.486;4.650;2023-02-15T01:26:10;102898.69;;;4.02;80.24
37852;BME280;23691;52.486;4.650;2023-02-15T01:28:36;102897.75;;;4.03;80.31
37852;BME280;23691;52.486;4.650;2023-02-15T01:31:10;102901.34;;;4.02;80.42
37852;BME280;23691;52.486;4.650;2023-02-15T01:33:36;102902.19;;;4.03;80.41
37852;BME280;23691;52.486;4.650;2023-02-15T01:36:03;102894.25;;;4.03;80.61
37852;BME280;23691;52.486;4.650;2023-02-15T01:38:28;102891.69;;;4.01;80.97
37852;BME280;23691;52.486;4.650;2023-02-15T01:40:54;102890.91;;;3.99;80.68
37852;BME280;23691;52.486;4.650;2023-02-15T01:43:41;102896.25;;;3.98;80.81
37852;BME280;23691;52.486;4.650;2023-02-15T01:46:15;102899.75;;;3.98;80.81
37852;BME280;23691;52.486;4.650;2023-02-15T01:48:45;102889.25;;;3.97;80.77
37852;BME280;23691;52.486;4.650;2023-02-15T01:51:16;102894.66;;;3.94;80.84
37852;BME280;23691;52.486;4.650;2023-02-15T01:53:49;102885.06;;;3.91;80.94
37852;BME280;23691;52.486;4.650;2023-02-15T01:56:22;102886.88;;;3.91;80.87
37852;BME280;23691;52.486;4.650;2023-02-15T01:58:49;102886.06;;;3.88;81.26
37852;BME280;23691;52.486;4.650;2023-02-15T02:01:17;102873.00;;;3.85;80.83
37852;BME280;23691;52.486;4.650;2023-02-15T02:06:32;102881.94;;;3.83;81.33
37852;BME280;23691;52.486;4.650;2023-02-15T02:08:58;102876.63;;;3.83;81.39
37852;BME280;23691;52.486;4.650;2023-02-15T02:11:24;102867.84;;;3.82;81.17
37852;BME280;23691;52.486;4.650;2023-02-15T02:13:51;102860.91;;;3.80;81.24
37852;BME280;23691;52.486;4.650;2023-02-15T02:24:55;102844.38;;;3.75;81.36
37852;BME280;23691;52.486;4.650;2023-02-15T02:27:34;102845.38;;;3.72;81.41
37852;BME280;23691;52.486;4.650;2023-02-15T02:30:29;102849.66;;;3.75;81.42
37852;BME280;23691;52.486;4.650;2023-02-15T02:38:48;102841.94;;;3.70;81.36
37852;BME280;23691;52.486;4.650;2023-02-15T02:41:26;102837.53;;;3.69;81.37
37852;BME280;23691;52.486;4.650;2023-02-15T02:49:32;102817.53;;;3.63;81.16
37852;BME280;23691;52.486;4.650;2023-02-15T02:52:00;102819.31;;;3.63;81.17
37852;BME280;23691;52.486;4.650;2023-02-15T02:54:26;102813.31;;;3.59;81.25
37852;BME280;23691;52.486;4.650;2023-02-15T02:56:52;102806.28;;;3.58;81.41
37852;BME280;23691;52.486;4.650;2023-02-15T02:59:25;102807.28;;;3.56;81.85
37852;BME280;23691;52.486;4.650;2023-02-15T03:02:08;102796.72;;;3.56;81.62
37852;BME280;23691;52.486;4.650;2023-02-15T03:04:40;102806.50;;;3.54;81.72
37852;BME280;23691;52.486;4.650;2023-02-15T03:07:10;102797.84;;;3.50;81.65
37852;BME280;23691;52.486;4.650;2023-02-15T03:09:42;102794.34;;;3.50;81.42
37852;BME280;23691;52.486;4.650;2023-02-15T03:12:21;102794.34;;;3.50;81.66
37852;BME280;23691;52.486;4.650;2023-02-15T03:14:50;102790.97;;;3.46;81.47
37852;BME280;23691;52.486;4.650;2023-02-15T03:17:20;102786.69;;;3.43;81.54
37852;BME280;23691;52.486;4.650;2023-02-15T03:19:49;102777.09;;;3.41;81.51
37852;BME280;23691;52.486;4.650;2023-02-15T03:22:20;102783.34;;;3.40;81.45
37852;BME280;23691;52.486;4.650;2023-02-15T03:24:59;102789.53;;;3.39;81.42
37852;BME280;23691;52.486;4.650;2023-02-15T03:27:31;102781.75;;;3.36;81.44
37852;BME280;23691;52.486;4.650;2023-02-15T03:29:59;102784.44;;;3.34;81.57
37852;BME280;23691;52.486;4.650;2023-02-15T03:32:28;102781.81;;;3.34;81.11
37852;BME280;23691;52.486;4.650;2023-02-15T03:34:55;102781.94;;;3.31;81.38
37852;BME280;23691;52.486;4.650;2023-02-15T03:37:35;102774.06;;;3.30;81.29
37852;BME280;23691;52.486;4.650;2023-02-15T03:40:11;102769.72;;;3.29;81.07
37852;BME280;23691;52.486;4.650;2023-02-15T03:43:14;102766.09;;;3.31;81.37
37852;BME280;23691;52.486;4.650;2023-02-15T03:45:46;102766.13;;;3.30;81.26
37852;BME280;23691;52.486;4.650;2023-02-15T03:48:29;102758.28;;;3.28;81.29
37852;BME280;23691;52.486;4.650;2023-02-15T03:51:00;102766.22;;;3.28;80.99
37852;BME280;23691;52.486;4.650;2023-02-15T03:53:47;102762.84;;;3.25;81.10
37852;BME280;23691;52.486;4.650;2023-02-15T03:56:13;102762.94;;;3.23;81.21
37852;BME280;23691;52.486;4.650;2023-02-15T03:58:39;102757.66;;;3.23;81.29
37852;BME280;23691;52.486;4.650;2023-02-15T04:01:39;102761.16;;;3.23;80.97
37852;BME280;23691;52.486;4.650;2023-02-15T04:04:16;102749.84;;;3.20;80.98
37852;BME280;23691;52.486;4.650;2023-02-15T04:06:43;102751.75;;;3.16;80.87
37852;BME280;23691;52.486;4.650;2023-02-15T04:09:08;102745.69;;;3.14;80.69
37852;BME280;23691;52.486;4.650;2023-02-15T04:11:52;102741.47;;;3.10;81.08
37852;BME280;23691;52.486;4.650;2023-02-15T04:14:17;102739.59;;;3.12;80.70
37852;BME280;23691;52.486;4.650;2023-02-15T04:17:05;102741.41;;;3.12;80.93
37852;BME280;23691;52.486;4.650;2023-02-15T04:19:31;102738.91;;;3.09;80.57
37852;BME280;23691;52.486;4.650;2023-02-15T04:22:15;102740.75;;;3.07;80.62
37852;BME280;23691;52.486;4.650;2023-02-15T04:24:58;102728.47;;;3.06;80.75
37852;BME280;23691;52.486;4.650;2023-02-15T04:27:44;102721.53;;;3.03;80.52
37852;BME280;23691;52.486;4.650;2023-02-15T04:30:12;102724.28;;;3.00;80.47
37852;BME280;23691;52.486;4.650;2023-02-15T04:32:38;102726.06;;;2.99;80.71
37852;BME280;23691;52.486;4.650;2023-02-15T04:35:05;102724.28;;;3.00;80.64
37852;BME280;23691;52.486;4.650;2023-02-15T04:37:31;102729.56;;;3.00;80.57
37852;BME280;23691;52.486;4.650;2023-02-15T04:39:56;102717.28;;;2.99;80.39
37852;BME280;23691;52.486;4.650;2023-02-15T04:42:24;102720.94;;;2.96;80.12
37852;BME280;23691;52.486;4.650;2023-02-15T04:44:51;102713.94;;;2.95;80.19
37852;BME280;23691;52.486;4.650;2023-02-15T04:47:16;102720.09;;;2.96;80.21
37852;BME280;23691;52.486;4.650;2023-02-15T04:49:41;102721.88;;;2.95;80.46
37852;BME280;23691;52.486;4.650;2023-02-15T04:52:07;102720.16;;;2.94;80.36
37852;BME280;23691;52.486;4.650;2023-02-15T04:54:32;102716.66;;;2.94;80.75
37852;BME280;23691;52.486;4.650;2023-02-15T04:56:57;102724.56;;;2.94;80.63
37852;BME280;23691;52.486;4.650;2023-02-15T04:59:23;102729.00;;;2.93;80.57
37852;BME280;23691;52.486;4.650;2023-02-15T05:01:48;102713.16;;;2.93;80.42
37852;BME280;23691;52.486;4.650;2023-02-15T05:04:13;102712.16;;;2.96;80.34
37852;BME280;23691;52.486;4.650;2023-02-15T05:06:39;102709.41;;;2.97;80.62
37852;BME280;23691;52.486;4.650;2023-02-15T05:09:04;102706.00;;;2.95;80.14
37852;BME280;23691;52.486;4.650;2023-02-15T05:11:30;102696.34;;;2.94;80.42
37852;BME280;23691;52.486;4.650;2023-02-15T05:13:55;102704.34;;;2.93;80.32
37852;BME280;23691;52.486;4.650;2023-02-15T05:16:21;102706.06;;;2.94;80.39
37852;BME280;23691;52.486;4.650;2023-02-15T05:18:46;102713.22;;;2.92;80.18
37852;BME280;23691;52.486;4.650;2023-02-15T05:21:11;102705.22;;;2.93;80.29
37852;BME280;23691;52.486;4.650;2023-02-15T05:23:38;102701.63;;;2.94;80.40
37852;BME280;23691;52.486;4.650;2023-02-15T05:26:04;102708.72;;;2.94;80.38
37852;BME280;23691;52.486;4.650;2023-02-15T05:28:48;102704.28;;;2.94;80.57
37852;BME280;23691;52.486;4.650;2023-02-15T05:31:16;102713.06;;;2.95;80.41
37852;BME280;23691;52.486;4.650;2023-02-15T05:33:42;102705.94;;;2.97;80.46
37852;BME280;23691;52.486;4.650;2023-02-15T05:36:08;102705.78;;;3.00;80.36
37852;BME280;23691;52.486;4.650;2023-02-15T05:38:34;102699.50;;;3.03;80.53
37852;BME280;23691;52.486;4.650;2023-02-15T05:41:00;102701.22;;;3.04;80.64
37852;BME280;23691;52.486;4.650;2023-02-15T05:43:25;102701.22;;;3.04;80.14
37852;BME280;23691;52.486;4.650;2023-02-15T05:45:53;102702.94;;;3.05;80.24
37852;BME280;23691;52.486;4.650;2023-02-15T05:48:21;102704.66;;;3.06;80.29
37852;BME280;23691;52.486;4.650;2023-02-15T05:50:46;102704.38;;;3.12;80.67
37852;BME280;23691;52.486;4.650;2023-02-15T05:53:12;102703.22;;;3.17;80.47
37852;BME280;23691;52.486;4.650;2023-02-15T05:55:38;102698.66;;;3.21;80.51
37852;BME280;23691;52.486;4.650;2023-02-15T05:58:04;102685.28;;;3.24;80.34
37852;BME280;23691;52.486;4.650;2023-02-15T06:00:30;102685.06;;;3.29;80.35
37852;BME280;23691;52.486;4.650;2023-02-15T06:02:55;102674.34;;;3.32;80.51
37852;BME280;23691;52.486;4.650;2023-02-15T06:05:20;102674.22;;;3.35;80.28
37852;BME280;23691;52.486;4.650;2023-02-15T06:07:46;102669.78;;;3.35;80.51
37852;BME280;23691;52.486;4.650;2023-02-15T06:10:11;102666.13;;;3.38;80.99
37852;BME280;23691;52.486;4.650;2023-02-15T06:12:37;102671.25;;;3.41;80.56
37852;BME280;23691;52.486;4.650;2023-02-15T06:15:21;102668.41;;;3.46;80.53
37852;BME280;23691;52.486;4.650;2023-02-15T06:17:46;102670.03;;;3.48;80.86
37852;BME280;23691;52.486;4.650;2023-02-15T06:20:12;102673.47;;;3.50;80.95
37852;BME280;23691;52.486;4.650;2023-02-15T06:22:37;102669.03;;;3.51;81.04
37852;BME280;23691;52.486;4.650;2023-02-15T06:25:03;102670.66;;;3.53;81.14
37852;BME280;23691;52.486;4.650;2023-02-15T06:27:28;102678.53;;;3.55;81.21
37852;BME280;23691;52.486;4.650;2023-02-15T06:29:54;102664.38;;;3.56;81.06
37852;BME280;23691;52.486;4.650;2023-02-15T06:32:19;102668.81;;;3.55;80.86
37852;BME280;23691;52.486;4.650;2023-02-15T06:34:44;102668.81;;;3.55;81.11
37852;BME280;23691;52.486;4.650;2023-02-15T06:37:10;102665.22;;;3.56;81.09
37852;BME280;23691;52.486;4.650;2023-02-15T06:39:35;102667.97;;;3.55;81.09
37852;BME280;23691;52.486;4.650;2023-02-15T06:42:01;102671.50;;;3.54;81.10
37852;BME280;23691;52.486;4.650;2023-02-15T06:44:26;102667.97;;;3.55;81.53
37852;BME280;23691;52.486;4.650;2023-02-15T06:46:51;102679.19;;;3.60;81.69
37852;BME280;23691;52.486;4.650;2023-02-15T06:49:17;102673.78;;;3.61;81.25
37852;BME280;23691;52.486;4.650;2023-02-15T06:51:42;102681.66;;;3.63;81.47
37852;BME280;23691;52.486;4.650;2023-02-15T06:54:08;102674.50;;;3.65;81.71
37852;BME280;23691;52.486;4.650;2023-02-15T06:56:33;102670.00;;;3.67;81.67
37852;BME280;23691;52.486;4.650;2023-02-15T06:58:58;102668.13;;;3.69;81.44
37852;BME280;23691;52.486;4.650;2023-02-15T07:01:24;102673.34;;;3.71;81.58
37852;BME280;23691;52.486;4.650;2023-02-15T07:03:49;102673.28;;;3.72;81.43
37852;BME280;23691;52.486;4.650;2023-02-15T07:06:15;102666.97;;;3.75;81.67
37852;BME280;23691;52.486;4.650;2023-02-15T07:08:40;102668.63;;;3.77;81.65
37852;BME280;23691;52.486;4.650;2023-02-15T07:11:06;102658.81;;;3.79;81.48
37852;BME280;23691;52.486;4.650;2023-02-15T07:13:51;102668.47;;;3.80;81.78
37852;BME280;23691;52.486;4.650;2023-02-15T07:16:17;102659.66;;;3.80;81.56
37852;BME280;23691;52.486;4.650;2023-02-15T07:18:43;102660.53;;;3.80;81.78
37852;BME280;23691;52.486;4.650;2023-02-15T07:21:08;102655.22;;;3.80;81.81
37852;BME280;23691;52.486;4.650;2023-02-15T07:23:37;102653.34;;;3.82;81.76
37852;BME280;23691;52.486;4.650;2023-02-15T07:26:04;102648.75;;;3.86;82.03
37852;BME280;23691;52.486;4.650;2023-02-15T07:28:39;102645.19;;;3.87;81.72
37852;BME280;23691;52.486;4.650;2023-02-15T07:31:13;102653.03;;;3.88;81.83
37852;BME280;23691;52.486;4.650;2023-02-15T07:33:47;102649.38;;;3.91;81.69
37852;BME280;23691;52.486;4.650;2023-02-15T07:36:13;102647.50;;;3.93;82.09
37852;BME280;23691;52.486;4.650;2023-02-15T07:38:40;102649.25;;;3.94;82.23
37852;BME280;23691;52.486;4.650;2023-02-15T07:41:10;102643.84;;;3.96;81.93
37852;BME280;23691;52.486;4.650;2023-02-15T07:43:38;102643.84;;;3.96;82.05
37852;BME280;23691;52.486;4.650;2023-02-15T07:46:09;102640.13;;;4.00;82.14
37852;BME280;23691;52.486;4.650;2023-02-15T07:48:37;102637.41;;;4.01;82.17
37852;BME280;23691;52.486;4.650;2023-02-15T07:51:04;102637.25;;;4.04;82.16
37852;BME280;23691;52.486;4.650;2023-02-15T07:53:30;102632.50;;;4.11;82.11
37852;BME280;23691;52.486;4.650;2023-02-15T07:56:08;102633.13;;;4.16;82.03
37852;BME280;23691;52.486;4.650;2023-02-15T07:58:34;102625.00;;;4.19;82.31
37852;BME280;23691;52.486;4.650;2023-02-15T08:01:24;102615.88;;;4.25;82.14
37852;BME280;23691;52.486;4.650;2023-02-15T08:03:50;102615.63;;;4.29;82.14
37852;BME280;23691;52.486;4.650;2023-02-15T08:06:16;102623.41;;;4.33;82.22
37852;BME280;23691;52.486;4.650;2023-02-15T08:08:41;102623.19;;;4.37;82.49
37852;BME280;23691;52.486;4.650;2023-02-15T08:13:56;102612.88;;;4.48;82.27
37852;BME280;23691;52.486;4.650;2023-02-15T08:16:42;102621.44;;;4.54;82.44
37852;BME280;23691;52.486;4.650;2023-02-15T08:19:08;102612.28;;;4.59;82.43
37852;BME280;23691;52.486;4.650;2023-02-15T08:21:36;102615.56;;;4.64;82.45
37852;BME280;23691;52.486;4.650;2023-02-15T08:24:02;102603.84;;;4.68;82.26
37852;BME280;23691;52.486;4.650;2023-02-15T08:26:29;102608.91;;;4.73;82.40
37852;BME280;23691;52.486;4.650;2023-02-15T08:28:55;102611.31;;;4.78;82.37
37852;BME280;23691;52.486;4.650;2023-02-15T08:31:21;102606.88;;;4.78;82.54
37852;BME280;23691;52.486;4.650;2023-02-15T08:33:48;102612.94;;;4.80;82.57
37852;BME280;23691;52.486;4.650;2023-02-15T08:36:16;102608.13;;;4.87;82.34
37852;BME280;23691;52.486;4.650;2023-02-15T08:38:42;102613.28;;;4.90;82.69
37852;BME280;23691;52.486;4.650;2023-02-15T08:43:40;102610.03;;;5.01;82.59
37852;BME280;23691;52.486;4.650;2023-02-15T08:46:06;102610.72;;;5.04;82.59
37852;BME280;23691;52.486;4.650;2023-02-15T08:48:32;102606.88;;;5.10;82.51
37852;BME280;23691;52.486;4.650;2023-02-15T08:50:58;102616.09;;;5.19;82.47
37852;BME280;23691;52.486;4.650;2023-02-15T08:53:23;102612.00;;;5.29;82.48
37852;BME280;23691;52.486;4.650;2023-02-15T08:55:56;102618.50;;;5.39;82.16
37852;BME280;23691;52.486;4.650;2023-02-15T08:58:22;102610.00;;;5.48;82.15
37852;BME280;23691;52.486;4.650;2023-02-15T09:00:47;102611.28;;;5.57;82.13
37852;BME280;23691;52.486;4.650;2023-02-15T09:03:13;102604.56;;;5.66;82.06
37852;BME280;23691;52.486;4.650;2023-02-15T09:05:38;102601.56;;;5.72;81.82
37852;BME280;23691;52.486;4.650;2023-02-15T09:08:04;102606.34;;;5.81;81.94
37852;BME280;23691;52.486;4.650;2023-02-15T09:10:29;102602.19;;;5.91;81.92
37852;BME280;23691;52.486;4.650;2023-02-15T09:12:54;102601.22;;;5.92;81.82
37852;BME280;23691;52.486;4.650;2023-02-15T09:15:20;102606.31;;;5.97;81.56
37852;BME280;23691;52.486;4.650;2023-02-15T09:17:45;102602.44;;;6.02;81.85
37852;BME280;23691;52.486;4.650;2023-02-15T09:20:11;102601.09;;;6.10;81.79
37852;BME280;23691;52.486;4.650;2023-02-15T09:22:36;102602.38;;;6.18;82.11
37852;BME280;23691;52.486;4.650;2023-02-15T09:25:02;102601.13;;;6.24;81.65
37852;BME280;23691;52.486;4.650;2023-02-15T09:27:27;102584.84;;;6.30;81.54
37852;BME280;23691;52.486;4.650;2023-02-15T09:29:52;102592.31;;;6.38;81.30
37852;BME280;23691;52.486;4.650;2023-02-15T09:32:18;102587.59;;;6.43;81.56
37852;BME280;23691;52.486;4.650;2023-02-15T09:34:43;102585.22;;;6.53;81.39
37852;BME280;23691;52.486;4.650;2023-02-15T09:37:09;102588.22;;;6.61;81.22
37852;BME280;23691;52.486;4.650;2023-02-15T09:39:37;102581.38;;;6.71;81.16
37852;BME280;23691;52.486;4.650;2023-02-15T09:42:16;102576.44;;;6.79;81.12
37852;BME280;23691;52.486;4.650;2023-02-15T09:59:52;102580.84;;;7.35;80.25
37852;BME280;23691;52.486;4.650;2023-02-15T10:02:51;102575.84;;;7.43;80.11
37852;BME280;23691;52.486;4.650;2023-02-15T10:16:25;102578.84;;;7.91;79.58
37852;BME280;23691;52.486;4.650;2023-02-15T10:22:36;102584.50;;;8.12;79.23
37852;BME280;23691;52.486;4.650;2023-02-15T10:28:08;102567.03;;;8.21;79.19
37852;BME280;23691;52.486;4.650;2023-02-15T10:30:46;102566.59;;;8.27;79.16
37852;BME280;23691;52.486;4.650;2023-02-15T10:33:20;102566.19;;;8.33;79.12
37852;BME280;23691;52.486;4.650;2023-02-15T10:58:31;102524.38;;;9.07;77.63
37852;BME280;23691;52.486;4.650;2023-02-15T11:01:38;102519.81;;;9.20;77.56
37852;BME280;23691;52.486;4.650;2023-02-15T11:04:30;102511.88;;;9.32;77.05
37852;BME280;23691;52.486;4.650;2023-02-15T11:07:04;102514.94;;;9.38;76.95
37852;BME280;23691;52.486;4.650;2023-02-15T11:09:42;102513.50;;;9.45;76.69
37852;BME280;23691;52.486;4.650;2023-02-15T11:12:16;102517.78;;;9.48;76.28
37852;BME280;23691;52.486;4.650;2023-02-15T11:15:11;102508.78;;;9.49;75.89
37852;BME280;23691;52.486;4.650;2023-02-15T11:17:47;102511.94;;;9.43;75.97
37852;BME280;23691;52.486;4.650;2023-02-15T11:20:25;102517.84;;;9.35;75.98
37852;BME280;23691;52.486;4.650;2023-02-15T11:22:53;102515.19;;;9.35;75.50
37852;BME280;23691;52.486;4.650;2023-02-15T11:25:24;102513.97;;;9.39;75.49
37852;BME280;23691;52.486;4.650;2023-02-15T11:27:51;102514.69;;;9.41;75.45
37852;BME280;23691;52.486;4.650;2023-02-15T11:30:23;102527.63;;;9.48;75.26
37852;BME280;23691;52.486;4.650;2023-02-15T11:32:52;102520.81;;;9.55;75.07
37852;BME280;23691;52.486;4.650;2023-02-15T11:35:27;102518.28;;;9.64;75.04
37852;BME280;23691;52.486;4.650;2023-02-15T11:38:12;102508.72;;;9.73;74.79
37852;BME280;23691;52.486;4.650;2023-02-15T11:41:05;102504.47;;;9.82;74.61
37852;BME280;23691;52.486;4.650;2023-02-15T11:43:53;102500.25;;;9.91;74.36
37852;BME280;23691;52.486;4.650;2023-02-15T11:46:22;102492.72;;;9.96;74.08
37852;BME280;23691;52.486;4.650;2023-02-15T11:48:47;102487.59;;;10.04;74.00
37852;BME280;23691;52.486;4.650;2023-02-15T11:51:21;102481.44;;;10.15;73.69
37852;BME280;23691;52.486;4.650;2023-02-15T11:53:48;102477.50;;;10.19;73.57
37852;BME280;23691;52.486;4.650;2023-02-15T11:56:22;102483.59;;;10.21;72.89
37852;BME280;23691;52.486;4.650;2023-02-15T12:01:31;102474.25;;;10.26;72.62
37852;BME280;23691;52.486;4.650;2023-02-15T12:06:46;102481.34;;;10.39;71.63
37852;BME280;23691;52.486;4.650;2023-02-15T12:09:33;102482.41;;;10.47;71.29
37852;BME280;23691;52.486;4.650;2023-02-15T12:12:23;102469.13;;;10.57;70.71
37852;BME280;23691;52.486;4.650;2023-02-15T12:14:56;102470.44;;;10.63;70.35
37852;BME280;23691;52.486;4.650;2023-02-15T12:17:33;102473.94;;;10.74;70.29
37852;BME280;23691;52.486;4.650;2023-02-15T12:22:34;102473.16;;;10.95;69.93
37852;BME280;23691;52.486;4.650;2023-02-15T12:25:39;102476.91;;;11.04;69.75
37852;BME280;23691;52.486;4.650;2023-02-15T12:28:22;102470.44;;;11.06;69.59
37852;BME280;23691;52.486;4.650;2023-02-15T12:30:53;102471.16;;;11.08;69.36
37852;BME280;23691;52.486;4.650;2023-02-15T12:36:00;102473.53;;;11.23;68.84
37852;BME280;23691;52.486;4.650;2023-02-15T12:38:28;102458.38;;;11.33;68.21
37852;BME280;23691;52.486;4.650;2023-02-15T12:41:01;102445.06;;;11.43;68.06
37852;BME280;23691;52.486;4.650;2023-02-15T12:46:13;102461.66;;;11.57;66.94
37852;BME280;23691;52.486;4.650;2023-02-15T12:48:39;102459.31;;;11.64;66.58
37852;BME280;23691;52.486;4.650;2023-02-15T12:51:14;102456.91;;;11.71;65.93
37852;BME280;23691;52.486;4.650;2023-02-15T12:53:39;102454.56;;;11.77;65.41
37852;BME280;23691;52.486;4.650;2023-02-15T12:56:07;102451.50;;;11.82;65.31
37852;BME280;23691;52.486;4.650;2023-02-15T12:58:40;102444.84;;;11.86;64.96
37852;BME280;23691;52.486;4.650;2023-02-15T13:03:35;102440.84;;;11.92;64.67
37852;BME280;23691;52.486;4.650;2023-02-15T13:06:02;102440.00;;;11.91;64.70
37852;BME280;23691;52.486;4.650;2023-02-15T13:08:54;102439.75;;;11.83;64.18
37852;BME280;23691;52.486;4.650;2023-02-15T13:11:29;102434.69;;;11.80;64.34
37852;BME280;23691;52.486;4.650;2023-02-15T13:14:13;102431.44;;;11.76;63.98
37852;BME280;23691;52.486;4.650;2023-02-15T13:16:43;102432.38;;;11.75;63.72
37852;BME280;23691;52.486;4.650;2023-02-15T13:19:12;102432.13;;;11.78;63.77
37852;BME280;23691;52.486;4.650;2023-02-15T13:21:44;102426.50;;;11.81;63.57
37852;BME280;23691;52.486;4.650;2023-02-15T13:24:35;102423.81;;;11.81;63.48
37852;BME280;23691;52.486;4.650;2023-02-15T13:27:03;102424.06;;;11.78;63.35
37852;BME280;23691;52.486;4.650;2023-02-15T13:29:31;102427.63;;;11.79;63.08
37852;BME280;23691;52.486;4.650;2023-02-15T13:32:10;102416.47;;;11.83;63.08
37852;BME280;23691;52.486;4.650;2023-02-15T13:34:38;102411.25;;;11.82;63.06
37852;BME280;23691;52.486;4.650;2023-02-15T13:37:15;102413.94;;;11.82;62.35
37852;BME280;23691;52.486;4.650;2023-02-15T13:39:43;102409.25;;;11.74;62.51
37852;BME280;23691;52.486;4.650;2023-02-15T13:42:29;102393.41;;;11.71;62.51
37852;BME280;23691;52.486;4.650;2023-02-15T13:47:50;102401.34;;;11.73;62.64
37852;BME280;23691;52.486;4.650;2023-02-15T13:50:50;102389.63;;;11.74;62.68
37852;BME280;23691;52.486;4.650;2023-02-15T13:56:10;102396.75;;;11.64;62.90
37852;BME280;23691;52.486;4.650;2023-02-15T13:58:55;102393.38;;;11.61;62.83
37852;BME280;23691;52.486;4.650;2023-02-15T14:04:22;102380.63;;;11.54;62.89
37852;BME280;23691;52.486;4.650;2023-02-15T14:07:16;102389.06;;;11.49;63.29
37852;BME280;23691;52.486;4.650;2023-02-15T14:12:57;102397.38;;;11.46;63.19
37852;BME280;23691;52.486;4.650;2023-02-15T14:15:40;102387.78;;;11.44;63.22
37852;BME280;23691;52.486;4.650;2023-02-15T14:18:35;102385.25;;;11.42;63.33
37852;BME280;23691;52.486;4.650;2023-02-15T14:31:59;102383.69;;;11.39;63.13
37852;BME280;23691;52.486;4.650;2023-02-15T14:34:53;102380.72;;;11.43;63.22
37852;BME280;23691;52.486;4.650;2023-02-15T14:37:29;102379.75;;;11.44;63.02
37852;BME280;23691;52.486;4.650;2023-02-15T14:40:28;102387.66;;;11.45;63.10
37852;BME280;23691;52.486;4.650;2023-02-15T14:43:27;102386.53;;;11.48;62.58
37852;BME280;23691;52.486;4.650;2023-02-15T14:48:31;102384.31;;;11.53;62.07
37852;BME280;23691;52.486;4.650;2023-02-15T14:50:57;102382.47;;;11.53;62.16
37852;BME280;23691;52.486;4.650;2023-02-15T14:53:35;102381.34;;;11.56;61.94
37852;BME280;23691;52.486;4.650;2023-02-15T14:56:06;102379.50;;;11.56;61.64
37852;BME280;23691;52.486;4.650;2023-02-15T14:58:35;102376.84;;;11.56;61.42
37852;BME280;23691;52.486;4.650;2023-02-15T15:01:08;102375.16;;;11.55;61.40
37852;BME280;23691;52.486;4.650;2023-02-15T15:03:35;102364.31;;;11.57;61.45
37852;BME280;23691;52.486;4.650;2023-02-15T15:06:02;102370.06;;;11.52;61.45
37852;BME280;23691;52.486;4.650;2023-02-15T15:08:39;102355.34;;;11.47;61.72
37852;BME280;23691;52.486;4.650;2023-02-15T15:16:27;102366.28;;;11.34;62.23
37852;BME280;23691;52.486;4.650;2023-02-15T15:18:53;102364.00;;;11.29;62.23
37852;BME280;23691;52.486;4.650;2023-02-15T15:30:01;102348.91;;;11.07;63.30
37852;BME280;23691;52.486;4.650;2023-02-15T15:32:30;102351.13;;;11.02;63.48
37852;BME280;23691;52.486;4.650;2023-02-15T15:38:31;102357.16;;;10.94;63.60